QTR203 OTHH-LGAV
Flight info
| Callsign | QTR203 |
|---|---|
| Flight time | 4h 21m |
| Altitude | 29000 |
| Route | DATRI L564 MIGMA/N0517F280 M628 AMBAG/N0487F400 M321 KSA T503 OVANO L768 FIRAS R655 KTN R785 NIKAS M978 LCA M601 VADUS DCT EVENO UM601 RDS UL995 VARIX |
| Aircraft | A359/H-SDE2E3GHIJ3J4J5LM1ORWXY/LB1D1 |
Departure
| Time | 2026-05-07 10:37 |
|---|---|
| Airport | Hamad International Airport (OTHH) |
Arrival
| Time | 2026-05-07 14:58 |
|---|---|
| Airport | Athens Eleftherios Venizelos International Airport (LGAV) |
| Time | Latitude | Longitude | Altitude | Speed | Heading |
|---|---|---|---|---|---|
| 2026-05-07 10:17 | 25.26400 | 51.61136 | 28 ft | 0 kts | 72° |
| 2026-05-07 10:28 | 25.26393 | 51.61114 | 27 ft | 4 kts | 72° |
| 2026-05-07 10:28 | 25.26385 | 51.61086 | 26 ft | 3 kts | 72° |
| 2026-05-07 10:28 | 25.26377 | 51.61062 | 25 ft | 4 kts | 59° |
| 2026-05-07 10:28 | 25.26363 | 51.61042 | 26 ft | 4 kts | 28° |
| 2026-05-07 10:29 | 25.26345 | 51.61036 | 26 ft | 4 kts | 346° |
| 2026-05-07 10:29 | 25.26322 | 51.61046 | 26 ft | 4 kts | 329° |
| 2026-05-07 10:29 | 25.26298 | 51.61061 | 26 ft | 4 kts | 335° |
| 2026-05-07 10:30 | 25.26293 | 51.61064 | 26 ft | 0 kts | 338° |
| 2026-05-07 10:32 | 25.26314 | 51.61055 | 26 ft | 9 kts | 338° |
| 2026-05-07 10:32 | 25.26410 | 51.61012 | 28 ft | 20 kts | 338° |
| 2026-05-07 10:32 | 25.26563 | 51.60935 | 28 ft | 28 kts | 316° |
| 2026-05-07 10:32 | 25.26655 | 51.60731 | 28 ft | 34 kts | 292° |
| 2026-05-07 10:33 | 25.26654 | 51.60512 | 28 ft | 31 kts | 248° |
| 2026-05-07 10:33 | 25.26655 | 51.60355 | 28 ft | 14 kts | 320° |
| 2026-05-07 10:33 | 25.26754 | 51.60319 | 28 ft | 20 kts | 338° |
| 2026-05-07 10:33 | 25.26909 | 51.60249 | 28 ft | 21 kts | 338° |
| 2026-05-07 10:34 | 25.26975 | 51.60121 | 28 ft | 23 kts | 314° |
| 2026-05-07 10:34 | 25.27138 | 51.60042 | 28 ft | 29 kts | 338° |
| 2026-05-07 10:34 | 25.27329 | 51.59957 | 28 ft | 32 kts | 338° |
| 2026-05-07 10:34 | 25.27543 | 51.59864 | 28 ft | 33 kts | 339° |
| 2026-05-07 10:35 | 25.27768 | 51.59765 | 28 ft | 31 kts | 337° |
| 2026-05-07 10:35 | 25.27987 | 51.59667 | 28 ft | 36 kts | 338° |
| 2026-05-07 10:35 | 25.28214 | 51.59567 | 28 ft | 37 kts | 339° |
| 2026-05-07 10:35 | 25.28468 | 51.59456 | 29 ft | 41 kts | 338° |
| 2026-05-07 10:36 | 25.28610 | 51.59362 | 29 ft | 13 kts | 288° |
| 2026-05-07 10:36 | 25.28577 | 51.59273 | 30 ft | 17 kts | 239° |
| 2026-05-07 10:36 | 25.28452 | 51.59262 | 30 ft | 24 kts | 159° |
| 2026-05-07 10:36 | 25.28160 | 51.59390 | 29 ft | 76 kts | 158° |
| 2026-05-07 10:37 | 25.27468 | 51.59695 | 28 ft | 136 kts | 158° |
| 2026-05-07 10:37 | 25.26424 | 51.60154 | 45 ft | 185 kts | 156° |
| 2026-05-07 10:37 | 25.25260 | 51.60705 | 806 ft | 176 kts | 155° |
| 2026-05-07 10:37 | 25.24106 | 51.61224 | 1345 ft | 185 kts | 159° |
| 2026-05-07 10:38 | 25.22877 | 51.61746 | 1652 ft | 199 kts | 159° |
| 2026-05-07 10:38 | 25.21527 | 51.62324 | 1932 ft | 215 kts | 159° |
| 2026-05-07 10:38 | 25.20104 | 51.62941 | 2373 ft | 222 kts | 158° |
| 2026-05-07 10:38 | 25.19132 | 51.63366 | 2592 ft | 234 kts | 158° |
| 2026-05-07 10:39 | 25.17544 | 51.64062 | 2837 ft | 256 kts | 158° |
| 2026-05-07 10:39 | 25.15854 | 51.64804 | 3336 ft | 265 kts | 158° |
| 2026-05-07 10:39 | 25.14122 | 51.65564 | 3981 ft | 270 kts | 158° |
| 2026-05-07 10:39 | 25.12365 | 51.66336 | 4663 ft | 273 kts | 157° |
| 2026-05-07 10:40 | 25.10592 | 51.67115 | 5310 ft | 276 kts | 157° |
| 2026-05-07 10:40 | 25.08800 | 51.67907 | 5959 ft | 279 kts | 156° |
| 2026-05-07 10:40 | 25.06987 | 51.68703 | 6588 ft | 282 kts | 157° |
| 2026-05-07 10:40 | 25.05154 | 51.69506 | 7218 ft | 285 kts | 156° |
| 2026-05-07 10:41 | 25.03236 | 51.70119 | 7858 ft | 290 kts | 172° |
| 2026-05-07 10:41 | 25.01230 | 51.69883 | 8537 ft | 294 kts | 197° |
| 2026-05-07 10:41 | 24.99334 | 51.69049 | 9224 ft | 298 kts | 202° |
| 2026-05-07 10:41 | 24.97431 | 51.68112 | 9909 ft | 301 kts | 203° |
| 2026-05-07 10:42 | 24.95493 | 51.67164 | 10403 ft | 312 kts | 202° |
| 2026-05-07 10:42 | 24.93451 | 51.66179 | 10666 ft | 330 kts | 202° |
| 2026-05-07 10:42 | 24.91286 | 51.65144 | 10915 ft | 347 kts | 202° |
| 2026-05-07 10:42 | 24.89021 | 51.64069 | 11157 ft | 362 kts | 202° |
| 2026-05-07 10:43 | 24.86658 | 51.62945 | 11396 ft | 376 kts | 202° |
| 2026-05-07 10:43 | 24.84228 | 51.61791 | 11800 ft | 383 kts | 202° |
| 2026-05-07 10:43 | 24.81795 | 51.60636 | 12300 ft | 387 kts | 202° |
| 2026-05-07 10:43 | 24.79309 | 51.59458 | 12842 ft | 390 kts | 203° |
| 2026-05-07 10:44 | 24.76790 | 51.58330 | 13364 ft | 393 kts | 198° |
| 2026-05-07 10:44 | 24.74141 | 51.57560 | 13886 ft | 395 kts | 192° |
| 2026-05-07 10:44 | 24.71448 | 51.56924 | 14399 ft | 397 kts | 191° |
| 2026-05-07 10:44 | 24.68728 | 51.56300 | 14918 ft | 399 kts | 191° |
| 2026-05-07 10:45 | 24.66003 | 51.55669 | 15436 ft | 401 kts | 191° |
| 2026-05-07 10:45 | 24.63268 | 51.55027 | 15946 ft | 403 kts | 192° |
| 2026-05-07 10:45 | 24.60517 | 51.54377 | 16465 ft | 405 kts | 192° |
| 2026-05-07 10:45 | 24.57754 | 51.53722 | 16986 ft | 407 kts | 191° |
| 2026-05-07 10:46 | 24.54977 | 51.53064 | 17504 ft | 409 kts | 191° |
| 2026-05-07 10:46 | 24.52176 | 51.52402 | 18020 ft | 412 kts | 191° |
| 2026-05-07 10:46 | 24.49370 | 51.51740 | 18482 ft | 414 kts | 191° |
| 2026-05-07 10:46 | 24.46574 | 51.51081 | 18904 ft | 417 kts | 192° |
| 2026-05-07 10:47 | 24.43723 | 51.50405 | 19346 ft | 419 kts | 192° |
| 2026-05-07 10:47 | 24.40862 | 51.49732 | 19805 ft | 421 kts | 192° |
| 2026-05-07 10:47 | 24.37977 | 51.49055 | 20254 ft | 424 kts | 192° |
| 2026-05-07 10:47 | 24.35068 | 51.48368 | 20680 ft | 427 kts | 192° |
| 2026-05-07 10:48 | 24.32185 | 51.47690 | 21101 ft | 430 kts | 193° |
| 2026-05-07 10:48 | 24.29243 | 51.47000 | 21538 ft | 433 kts | 193° |
| 2026-05-07 10:48 | 24.26283 | 51.46306 | 21959 ft | 437 kts | 193° |
| 2026-05-07 10:48 | 24.23288 | 51.45639 | 22366 ft | 440 kts | 190° |
| 2026-05-07 10:49 | 24.20228 | 51.45306 | 22785 ft | 444 kts | 184° |
| 2026-05-07 10:49 | 24.17122 | 51.45184 | 23197 ft | 447 kts | 182° |
| 2026-05-07 10:49 | 24.13992 | 51.45149 | 23570 ft | 451 kts | 181° |
| 2026-05-07 10:49 | 24.10845 | 51.45162 | 23962 ft | 452 kts | 181° |
| 2026-05-07 10:50 | 24.07688 | 51.45192 | 24351 ft | 454 kts | 181° |
| 2026-05-07 10:50 | 24.04526 | 51.45225 | 24767 ft | 455 kts | 181° |
| 2026-05-07 10:50 | 24.01351 | 51.45252 | 25204 ft | 457 kts | 181° |
| 2026-05-07 10:50 | 23.98199 | 51.45273 | 25621 ft | 459 kts | 181° |
| 2026-05-07 10:51 | 23.94992 | 51.45288 | 26065 ft | 461 kts | 182° |
| 2026-05-07 10:51 | 23.91777 | 51.45300 | 26506 ft | 463 kts | 182° |
| 2026-05-07 10:51 | 23.88553 | 51.45310 | 26941 ft | 465 kts | 182° |
| 2026-05-07 10:51 | 23.85304 | 51.45320 | 27366 ft | 467 kts | 182° |
| 2026-05-07 10:52 | 23.82049 | 51.45330 | 27793 ft | 469 kts | 182° |
| 2026-05-07 10:52 | 23.78765 | 51.45340 | 28230 ft | 471 kts | 182° |
| 2026-05-07 10:52 | 23.75515 | 51.45350 | 28645 ft | 474 kts | 182° |
| 2026-05-07 10:52 | 23.72167 | 51.45361 | 28802 ft | 478 kts | 182° |
| 2026-05-07 10:53 | 23.65438 | 51.45378 | 28808 ft | 490 kts | 182° |
| 2026-05-07 10:53 | 23.58617 | 51.45403 | 28806 ft | 489 kts | 182° |
| 2026-05-07 10:54 | 23.51797 | 51.45429 | 28804 ft | 489 kts | 182° |
| 2026-05-07 10:54 | 23.45027 | 51.45462 | 28801 ft | 489 kts | 182° |
| 2026-05-07 10:55 | 23.38201 | 51.45568 | 28802 ft | 490 kts | 182° |
| 2026-05-07 10:55 | 23.31374 | 51.45690 | 28800 ft | 490 kts | 182° |
| 2026-05-07 10:56 | 23.24589 | 51.45803 | 28796 ft | 490 kts | 182° |
| 2026-05-07 10:56 | 23.17754 | 51.45911 | 28797 ft | 491 kts | 182° |
| 2026-05-07 10:57 | 23.10923 | 51.46001 | 28792 ft | 491 kts | 182° |
| 2026-05-07 10:57 | 23.04085 | 51.46090 | 28790 ft | 491 kts | 182° |
| 2026-05-07 10:58 | 22.97240 | 51.46182 | 28788 ft | 491 kts | 182° |
| 2026-05-07 10:58 | 22.90504 | 51.45455 | 28788 ft | 485 kts | 198° |
| 2026-05-07 10:59 | 22.87387 | 51.44100 | 28788 ft | 481 kts | 210° |
| 2026-05-07 10:59 | 22.84639 | 51.42063 | 28789 ft | 478 kts | 222° |
| 2026-05-07 10:59 | 22.82403 | 51.39460 | 28785 ft | 477 kts | 234° |
| 2026-05-07 10:59 | 22.80735 | 51.36360 | 28790 ft | 476 kts | 246° |
| 2026-05-07 11:00 | 22.79735 | 51.32941 | 28789 ft | 477 kts | 258° |
| 2026-05-07 11:00 | 22.79443 | 51.29362 | 28788 ft | 479 kts | 270° |
| 2026-05-07 11:00 | 22.79877 | 51.25777 | 28785 ft | 482 kts | 282° |
| 2026-05-07 11:00 | 22.81030 | 51.22349 | 28788 ft | 486 kts | 294° |
| 2026-05-07 11:01 | 22.84424 | 51.15987 | 28792 ft | 487 kts | 295° |
| 2026-05-07 11:01 | 22.86675 | 51.09127 | 28801 ft | 482 kts | 278° |
| 2026-05-07 11:02 | 22.87484 | 51.01929 | 28793 ft | 481 kts | 273° |
| 2026-05-07 11:02 | 22.87922 | 50.94702 | 28800 ft | 481 kts | 272° |
| 2026-05-07 11:03 | 22.88331 | 50.87466 | 28804 ft | 481 kts | 272° |
| 2026-05-07 11:03 | 22.88778 | 50.80274 | 28800 ft | 481 kts | 272° |
| 2026-05-07 11:04 | 22.89250 | 50.73041 | 28799 ft | 481 kts | 272° |
| 2026-05-07 11:04 | 22.89724 | 50.65788 | 28798 ft | 481 kts | 272° |
| 2026-05-07 11:05 | 22.90189 | 50.58598 | 28802 ft | 481 kts | 272° |
| 2026-05-07 11:05 | 22.90652 | 50.51366 | 28797 ft | 480 kts | 272° |
| 2026-05-07 11:06 | 22.91111 | 50.44138 | 28802 ft | 480 kts | 272° |
| 2026-05-07 11:06 | 22.91567 | 50.36909 | 28806 ft | 480 kts | 272° |
| 2026-05-07 11:07 | 22.92020 | 50.29662 | 28803 ft | 480 kts | 272° |
| 2026-05-07 11:07 | 22.92467 | 50.22466 | 28804 ft | 480 kts | 272° |
| 2026-05-07 11:08 | 22.92914 | 50.15218 | 28804 ft | 480 kts | 272° |
| 2026-05-07 11:08 | 22.93357 | 50.07989 | 28805 ft | 480 kts | 272° |
| 2026-05-07 11:09 | 22.93797 | 50.00749 | 28805 ft | 480 kts | 272° |
| 2026-05-07 11:09 | 22.94231 | 49.93564 | 28805 ft | 480 kts | 271° |
| 2026-05-07 11:10 | 22.94664 | 49.86332 | 28805 ft | 480 kts | 271° |
| 2026-05-07 11:10 | 22.95093 | 49.79096 | 28801 ft | 480 kts | 271° |
| 2026-05-07 11:11 | 22.95519 | 49.71864 | 28803 ft | 480 kts | 271° |
| 2026-05-07 11:11 | 22.95942 | 49.64633 | 28805 ft | 480 kts | 271° |
| 2026-05-07 11:12 | 22.96362 | 49.57405 | 28802 ft | 480 kts | 271° |
| 2026-05-07 11:12 | 22.96776 | 49.50214 | 28805 ft | 480 kts | 271° |
| 2026-05-07 11:13 | 22.97188 | 49.42995 | 28806 ft | 479 kts | 271° |
| 2026-05-07 11:13 | 22.97597 | 49.35776 | 28799 ft | 479 kts | 271° |
| 2026-05-07 11:14 | 22.98004 | 49.28547 | 28801 ft | 479 kts | 271° |
| 2026-05-07 11:14 | 22.98406 | 49.21334 | 28803 ft | 479 kts | 271° |
| 2026-05-07 11:15 | 22.98804 | 49.14123 | 28804 ft | 478 kts | 271° |
| 2026-05-07 11:15 | 22.99197 | 49.06967 | 28806 ft | 478 kts | 271° |
| 2026-05-07 11:16 | 22.99588 | 48.99774 | 28811 ft | 477 kts | 271° |
| 2026-05-07 11:16 | 23.00093 | 48.92571 | 28811 ft | 478 kts | 273° |
| 2026-05-07 11:17 | 23.00718 | 48.85400 | 28811 ft | 477 kts | 273° |
| 2026-05-07 11:17 | 23.01331 | 48.78211 | 28813 ft | 477 kts | 273° |
| 2026-05-07 11:18 | 23.01912 | 48.71074 | 28816 ft | 477 kts | 272° |
| 2026-05-07 11:18 | 23.02483 | 48.63899 | 28820 ft | 477 kts | 272° |
| 2026-05-07 11:19 | 23.03049 | 48.56726 | 28818 ft | 477 kts | 272° |
| 2026-05-07 11:19 | 23.03612 | 48.49556 | 28818 ft | 476 kts | 272° |
| 2026-05-07 11:20 | 23.04172 | 48.42395 | 28823 ft | 476 kts | 272° |
| 2026-05-07 11:20 | 23.04729 | 48.35233 | 28822 ft | 476 kts | 272° |
| 2026-05-07 11:21 | 23.05283 | 48.28075 | 28822 ft | 476 kts | 272° |
| 2026-05-07 11:21 | 23.05834 | 48.20919 | 28826 ft | 475 kts | 272° |
| 2026-05-07 11:22 | 23.06381 | 48.13767 | 28824 ft | 475 kts | 272° |
| 2026-05-07 11:22 | 23.06919 | 48.06677 | 28824 ft | 475 kts | 272° |
| 2026-05-07 11:23 | 23.07460 | 47.99517 | 28829 ft | 474 kts | 272° |
| 2026-05-07 11:23 | 23.07995 | 47.92386 | 28838 ft | 474 kts | 272° |
| 2026-05-07 11:24 | 23.08771 | 47.85263 | 28840 ft | 477 kts | 279° |
| 2026-05-07 11:24 | 23.11191 | 47.78543 | 29213 ft | 482 kts | 297° |
| 2026-05-07 11:25 | 23.12429 | 47.76534 | 29613 ft | 483 kts | 303° |
| 2026-05-07 11:25 | 23.14664 | 47.73777 | 30087 ft | 490 kts | 312° |
| 2026-05-07 11:25 | 23.17326 | 47.71425 | 30417 ft | 497 kts | 321° |
| 2026-05-07 11:25 | 23.21174 | 47.68673 | 30835 ft | 502 kts | 323° |
| 2026-05-07 11:26 | 23.23185 | 47.67317 | 31027 ft | 503 kts | 323° |
| 2026-05-07 11:26 | 23.26147 | 47.65357 | 31325 ft | 506 kts | 324° |
| 2026-05-07 11:26 | 23.29161 | 47.63370 | 31606 ft | 508 kts | 323° |
| 2026-05-07 11:26 | 23.32175 | 47.61371 | 31919 ft | 508 kts | 323° |
| 2026-05-07 11:27 | 23.35199 | 47.59350 | 32335 ft | 507 kts | 323° |
| 2026-05-07 11:27 | 23.38193 | 47.57336 | 32758 ft | 505 kts | 323° |
| 2026-05-07 11:27 | 23.41175 | 47.55319 | 33158 ft | 504 kts | 322° |
| 2026-05-07 11:27 | 23.44143 | 47.53305 | 33543 ft | 503 kts | 322° |
| 2026-05-07 11:28 | 23.47118 | 47.51284 | 33931 ft | 502 kts | 322° |
| 2026-05-07 11:28 | 23.50073 | 47.49280 | 34271 ft | 501 kts | 322° |
| 2026-05-07 11:28 | 23.53022 | 47.47277 | 34607 ft | 499 kts | 322° |
| 2026-05-07 11:28 | 23.55965 | 47.45276 | 34947 ft | 498 kts | 322° |
| 2026-05-07 11:29 | 23.58910 | 47.43272 | 35279 ft | 497 kts | 322° |
| 2026-05-07 11:29 | 23.61792 | 47.41311 | 35604 ft | 495 kts | 322° |
| 2026-05-07 11:29 | 23.64736 | 47.39306 | 35947 ft | 494 kts | 321° |
| 2026-05-07 11:29 | 23.67646 | 47.37324 | 36286 ft | 493 kts | 321° |
| 2026-05-07 11:30 | 23.70548 | 47.35348 | 36583 ft | 492 kts | 321° |
| 2026-05-07 11:30 | 23.73448 | 47.33371 | 36893 ft | 491 kts | 321° |
| 2026-05-07 11:30 | 23.76344 | 47.31395 | 37195 ft | 489 kts | 321° |
| 2026-05-07 11:30 | 23.79236 | 47.29422 | 37508 ft | 488 kts | 321° |
| 2026-05-07 11:31 | 23.82080 | 47.27480 | 37801 ft | 487 kts | 321° |
| 2026-05-07 11:31 | 23.84947 | 47.25522 | 38081 ft | 486 kts | 321° |
| 2026-05-07 11:31 | 23.87819 | 47.23559 | 38359 ft | 485 kts | 321° |
| 2026-05-07 11:31 | 23.90679 | 47.21603 | 38626 ft | 484 kts | 321° |
| 2026-05-07 11:32 | 23.96386 | 47.17697 | 38995 ft | 484 kts | 321° |
| 2026-05-07 11:32 | 23.99243 | 47.15739 | 39172 ft | 483 kts | 321° |
| 2026-05-07 11:32 | 24.02097 | 47.13784 | 39354 ft | 483 kts | 321° |
| 2026-05-07 11:33 | 24.04949 | 47.11828 | 39527 ft | 483 kts | 321° |
| 2026-05-07 11:33 | 24.07762 | 47.09898 | 39698 ft | 483 kts | 321° |
| 2026-05-07 11:33 | 24.10646 | 47.07994 | 39858 ft | 486 kts | 324° |
| 2026-05-07 11:34 | 24.16837 | 47.04843 | 39936 ft | 492 kts | 329° |
| 2026-05-07 11:34 | 24.23161 | 47.01896 | 39941 ft | 493 kts | 330° |
| 2026-05-07 11:35 | 24.29491 | 46.98982 | 39943 ft | 493 kts | 330° |
| 2026-05-07 11:35 | 24.35768 | 46.96074 | 39949 ft | 493 kts | 329° |
| 2026-05-07 11:36 | 24.42094 | 46.93127 | 39950 ft | 493 kts | 329° |
| 2026-05-07 11:36 | 24.48404 | 46.90181 | 39952 ft | 493 kts | 329° |
| 2026-05-07 11:37 | 24.54719 | 46.87229 | 39956 ft | 493 kts | 329° |
| 2026-05-07 11:37 | 24.61042 | 46.84270 | 39963 ft | 494 kts | 329° |
| 2026-05-07 11:38 | 24.67326 | 46.81327 | 39963 ft | 494 kts | 329° |
| 2026-05-07 11:38 | 24.73655 | 46.78360 | 39969 ft | 494 kts | 329° |
| 2026-05-07 11:39 | 24.79987 | 46.75389 | 39966 ft | 495 kts | 329° |
| 2026-05-07 11:39 | 24.86325 | 46.72410 | 39969 ft | 495 kts | 329° |
| 2026-05-07 11:40 | 24.92666 | 46.69427 | 39970 ft | 496 kts | 329° |
| 2026-05-07 11:40 | 24.98676 | 46.65903 | 39971 ft | 481 kts | 315° |
| 2026-05-07 11:41 | 25.03726 | 46.61184 | 39972 ft | 474 kts | 309° |
| 2026-05-07 11:41 | 25.08535 | 46.56275 | 39972 ft | 473 kts | 308° |
| 2026-05-07 11:42 | 25.13343 | 46.51305 | 39959 ft | 474 kts | 309° |
| 2026-05-07 11:42 | 25.18167 | 46.46344 | 39959 ft | 474 kts | 309° |
| 2026-05-07 11:43 | 25.22996 | 46.41395 | 39959 ft | 474 kts | 309° |
| 2026-05-07 11:43 | 25.27837 | 46.36434 | 39954 ft | 474 kts | 309° |
| 2026-05-07 11:44 | 25.32658 | 46.31487 | 39954 ft | 474 kts | 308° |
| 2026-05-07 11:44 | 25.37483 | 46.26528 | 39949 ft | 473 kts | 308° |
| 2026-05-07 11:45 | 25.42307 | 46.21566 | 39946 ft | 473 kts | 308° |
| 2026-05-07 11:45 | 25.47100 | 46.16628 | 39943 ft | 473 kts | 308° |
| 2026-05-07 11:46 | 25.51922 | 46.11656 | 39941 ft | 473 kts | 308° |
| 2026-05-07 11:46 | 25.56742 | 46.06680 | 39936 ft | 473 kts | 308° |
| 2026-05-07 11:47 | 25.61557 | 46.01703 | 39937 ft | 473 kts | 308° |
| 2026-05-07 11:47 | 25.66364 | 45.96737 | 39943 ft | 472 kts | 308° |
| 2026-05-07 11:48 | 25.71167 | 45.91756 | 39936 ft | 472 kts | 308° |
| 2026-05-07 11:48 | 25.75965 | 45.86776 | 39940 ft | 472 kts | 308° |
| 2026-05-07 11:49 | 25.80762 | 45.81793 | 39939 ft | 472 kts | 308° |
| 2026-05-07 11:49 | 25.85556 | 45.76810 | 39942 ft | 472 kts | 307° |
| 2026-05-07 11:50 | 25.90328 | 45.71845 | 39943 ft | 472 kts | 307° |
| 2026-05-07 11:50 | 25.95121 | 45.66847 | 39951 ft | 472 kts | 307° |
| 2026-05-07 11:51 | 25.99915 | 45.61841 | 39952 ft | 472 kts | 307° |
| 2026-05-07 11:51 | 26.04680 | 45.56862 | 39952 ft | 472 kts | 307° |
| 2026-05-07 11:52 | 26.09468 | 45.51855 | 39955 ft | 472 kts | 307° |
| 2026-05-07 11:52 | 26.14249 | 45.46848 | 39961 ft | 471 kts | 307° |
| 2026-05-07 11:53 | 26.19027 | 45.41842 | 39962 ft | 471 kts | 307° |
| 2026-05-07 11:53 | 26.23797 | 45.36838 | 39965 ft | 471 kts | 306° |
| 2026-05-07 11:54 | 26.28561 | 45.31830 | 39973 ft | 470 kts | 306° |
| 2026-05-07 11:54 | 26.33333 | 45.26821 | 39974 ft | 470 kts | 306° |
| 2026-05-07 11:55 | 26.38070 | 45.21854 | 39975 ft | 470 kts | 306° |
| 2026-05-07 11:55 | 26.42833 | 45.16853 | 39980 ft | 470 kts | 306° |
| 2026-05-07 11:56 | 26.47603 | 45.11838 | 39968 ft | 471 kts | 306° |
| 2026-05-07 11:56 | 26.52369 | 45.06821 | 39996 ft | 471 kts | 306° |
| 2026-05-07 11:57 | 26.57135 | 45.01800 | 39982 ft | 471 kts | 306° |
| 2026-05-07 11:57 | 26.61903 | 44.96778 | 39986 ft | 471 kts | 306° |
| 2026-05-07 11:58 | 26.66632 | 44.91787 | 39981 ft | 471 kts | 306° |
| 2026-05-07 11:58 | 26.71387 | 44.86758 | 39980 ft | 470 kts | 306° |
| 2026-05-07 11:59 | 26.76148 | 44.81718 | 39983 ft | 470 kts | 306° |
| 2026-05-07 11:59 | 26.80900 | 44.76684 | 39979 ft | 470 kts | 305° |
| 2026-05-07 12:00 | 26.85642 | 44.71641 | 39983 ft | 470 kts | 305° |
| 2026-05-07 12:00 | 26.90377 | 44.66598 | 39975 ft | 470 kts | 305° |
| 2026-05-07 12:01 | 26.95115 | 44.61550 | 39984 ft | 470 kts | 305° |
| 2026-05-07 12:01 | 26.99846 | 44.56504 | 39980 ft | 469 kts | 305° |
| 2026-05-07 12:02 | 27.04537 | 44.51492 | 39977 ft | 469 kts | 305° |
| 2026-05-07 12:02 | 27.09256 | 44.46434 | 39979 ft | 468 kts | 305° |
| 2026-05-07 12:03 | 27.13968 | 44.41381 | 39988 ft | 468 kts | 305° |
| 2026-05-07 12:03 | 27.18673 | 44.36335 | 39969 ft | 467 kts | 305° |
| 2026-05-07 12:04 | 27.23344 | 44.31328 | 39968 ft | 467 kts | 305° |
| 2026-05-07 12:04 | 27.28047 | 44.26273 | 39966 ft | 467 kts | 305° |
| 2026-05-07 12:05 | 27.32757 | 44.21208 | 39966 ft | 468 kts | 305° |
| 2026-05-07 12:05 | 27.37465 | 44.16138 | 39959 ft | 468 kts | 304° |
| 2026-05-07 12:06 | 27.42171 | 44.11066 | 39954 ft | 469 kts | 304° |
| 2026-05-07 12:06 | 27.46860 | 44.06007 | 39956 ft | 469 kts | 304° |
| 2026-05-07 12:07 | 27.51573 | 44.00914 | 39950 ft | 469 kts | 304° |
| 2026-05-07 12:07 | 27.56279 | 43.95824 | 39951 ft | 469 kts | 304° |
| 2026-05-07 12:08 | 27.60985 | 43.90726 | 39947 ft | 469 kts | 304° |
| 2026-05-07 12:08 | 27.65687 | 43.85626 | 39948 ft | 469 kts | 304° |
| 2026-05-07 12:09 | 27.70362 | 43.80549 | 39948 ft | 469 kts | 304° |
| 2026-05-07 12:09 | 27.75059 | 43.75442 | 39952 ft | 469 kts | 304° |
| 2026-05-07 12:10 | 27.79758 | 43.70326 | 39952 ft | 469 kts | 304° |
| 2026-05-07 12:10 | 27.84451 | 43.65209 | 39956 ft | 469 kts | 304° |
| 2026-05-07 12:11 | 27.89009 | 43.59973 | 39954 ft | 465 kts | 302° |
| 2026-05-07 12:11 | 27.93379 | 43.54589 | 39956 ft | 464 kts | 301° |
| 2026-05-07 12:12 | 27.97760 | 43.49205 | 39962 ft | 466 kts | 302° |
| 2026-05-07 12:12 | 28.02180 | 43.43840 | 39969 ft | 466 kts | 302° |
| 2026-05-07 12:13 | 28.06587 | 43.38515 | 39968 ft | 466 kts | 302° |
| 2026-05-07 12:13 | 28.11031 | 43.33141 | 39973 ft | 466 kts | 302° |
| 2026-05-07 12:14 | 28.14719 | 43.28671 | 39966 ft | 467 kts | 302° |
| 2026-05-07 12:14 | 28.19158 | 43.23284 | 39974 ft | 466 kts | 302° |
| 2026-05-07 12:15 | 28.23581 | 43.17910 | 39981 ft | 466 kts | 302° |
| 2026-05-07 12:15 | 28.28008 | 43.12524 | 39983 ft | 467 kts | 302° |
| 2026-05-07 12:16 | 28.32433 | 43.07134 | 39985 ft | 466 kts | 302° |
| 2026-05-07 12:16 | 28.36853 | 43.01741 | 39980 ft | 466 kts | 302° |
| 2026-05-07 12:17 | 28.41278 | 42.96336 | 39987 ft | 466 kts | 302° |
| 2026-05-07 12:17 | 28.45671 | 42.90963 | 39987 ft | 466 kts | 302° |
| 2026-05-07 12:18 | 28.50086 | 42.85557 | 39993 ft | 466 kts | 302° |
| 2026-05-07 12:18 | 28.54496 | 42.80147 | 39990 ft | 466 kts | 302° |
| 2026-05-07 12:19 | 28.58880 | 42.74762 | 39995 ft | 466 kts | 302° |
| 2026-05-07 12:19 | 28.63298 | 42.69328 | 39998 ft | 466 kts | 302° |
| 2026-05-07 12:20 | 28.67712 | 42.63902 | 39997 ft | 466 kts | 302° |
| 2026-05-07 12:20 | 28.72112 | 42.58474 | 40004 ft | 467 kts | 302° |
| 2026-05-07 12:21 | 28.76486 | 42.53067 | 40004 ft | 467 kts | 302° |
| 2026-05-07 12:21 | 28.80892 | 42.47617 | 40002 ft | 467 kts | 302° |
| 2026-05-07 12:22 | 28.85301 | 42.42158 | 40003 ft | 468 kts | 302° |
| 2026-05-07 12:22 | 28.89711 | 42.36691 | 40008 ft | 468 kts | 302° |
| 2026-05-07 12:23 | 28.94129 | 42.31206 | 40009 ft | 469 kts | 302° |
| 2026-05-07 12:23 | 28.98515 | 42.25754 | 40011 ft | 469 kts | 302° |
| 2026-05-07 12:24 | 29.02933 | 42.20254 | 40015 ft | 469 kts | 302° |
| 2026-05-07 12:24 | 29.07355 | 42.14750 | 40014 ft | 470 kts | 302° |
| 2026-05-07 12:25 | 29.11772 | 42.09233 | 40018 ft | 470 kts | 302° |
| 2026-05-07 12:25 | 29.16155 | 42.03749 | 40017 ft | 470 kts | 302° |
| 2026-05-07 12:26 | 29.20570 | 41.98220 | 40015 ft | 471 kts | 302° |
| 2026-05-07 12:26 | 29.24993 | 41.92675 | 40019 ft | 471 kts | 302° |
| 2026-05-07 12:27 | 29.29422 | 41.87114 | 40022 ft | 471 kts | 302° |
| 2026-05-07 12:27 | 29.33823 | 41.81583 | 40022 ft | 472 kts | 302° |
| 2026-05-07 12:28 | 29.38242 | 41.76021 | 40027 ft | 472 kts | 302° |
| 2026-05-07 12:28 | 29.42659 | 41.70453 | 40026 ft | 472 kts | 302° |
| 2026-05-07 12:29 | 29.47081 | 41.64871 | 40030 ft | 472 kts | 302° |
| 2026-05-07 12:29 | 29.51502 | 41.59282 | 40036 ft | 473 kts | 302° |
| 2026-05-07 12:30 | 29.55923 | 41.53686 | 40038 ft | 473 kts | 302° |
| 2026-05-07 12:30 | 29.60315 | 41.48119 | 40040 ft | 473 kts | 302° |
| 2026-05-07 12:31 | 29.64732 | 41.42511 | 40040 ft | 473 kts | 302° |
| 2026-05-07 12:31 | 29.69150 | 41.36896 | 40034 ft | 473 kts | 302° |
| 2026-05-07 12:32 | 29.73611 | 41.31306 | 40043 ft | 478 kts | 306° |
| 2026-05-07 12:32 | 29.78521 | 41.26087 | 40043 ft | 482 kts | 308° |
| 2026-05-07 12:33 | 29.86047 | 41.18377 | 40046 ft | 483 kts | 309° |
| 2026-05-07 12:33 | 29.91042 | 41.13262 | 40046 ft | 483 kts | 308° |
| 2026-05-07 12:34 | 29.96058 | 41.08104 | 40048 ft | 483 kts | 309° |
| 2026-05-07 12:34 | 30.01070 | 41.02935 | 40045 ft | 483 kts | 309° |
| 2026-05-07 12:35 | 30.06076 | 40.97765 | 40047 ft | 483 kts | 309° |
| 2026-05-07 12:35 | 30.11088 | 40.92582 | 40049 ft | 483 kts | 309° |
| 2026-05-07 12:36 | 30.16061 | 40.87431 | 40065 ft | 483 kts | 309° |
| 2026-05-07 12:36 | 30.21075 | 40.82232 | 40064 ft | 483 kts | 309° |
| 2026-05-07 12:37 | 30.26083 | 40.77031 | 40058 ft | 484 kts | 309° |
| 2026-05-07 12:37 | 30.31084 | 40.71831 | 40070 ft | 484 kts | 309° |
| 2026-05-07 12:38 | 30.36093 | 40.66615 | 40062 ft | 484 kts | 309° |
| 2026-05-07 12:38 | 30.41078 | 40.61435 | 40065 ft | 485 kts | 310° |
| 2026-05-07 12:39 | 30.46139 | 40.56257 | 40065 ft | 485 kts | 310° |
| 2026-05-07 12:39 | 30.51205 | 40.51083 | 40061 ft | 485 kts | 310° |
| 2026-05-07 12:40 | 30.56269 | 40.45893 | 40059 ft | 485 kts | 310° |
| 2026-05-07 12:40 | 30.61323 | 40.40699 | 40061 ft | 485 kts | 310° |
| 2026-05-07 12:41 | 30.66382 | 40.35492 | 40063 ft | 485 kts | 310° |
| 2026-05-07 12:41 | 30.71416 | 40.30302 | 40063 ft | 485 kts | 310° |
| 2026-05-07 12:42 | 30.76471 | 40.25082 | 40061 ft | 485 kts | 310° |
| 2026-05-07 12:42 | 30.81522 | 40.19859 | 40060 ft | 485 kts | 310° |
| 2026-05-07 12:43 | 30.86568 | 40.14635 | 40057 ft | 486 kts | 310° |
| 2026-05-07 12:43 | 30.91590 | 40.09426 | 40055 ft | 486 kts | 310° |
| 2026-05-07 12:44 | 30.96637 | 40.04185 | 40053 ft | 486 kts | 310° |
| 2026-05-07 12:44 | 31.01679 | 39.98941 | 40049 ft | 486 kts | 310° |
| 2026-05-07 12:45 | 31.06725 | 39.93685 | 40046 ft | 486 kts | 310° |
| 2026-05-07 12:45 | 31.11766 | 39.88426 | 40042 ft | 486 kts | 310° |
| 2026-05-07 12:46 | 31.16773 | 39.83196 | 40044 ft | 486 kts | 310° |
| 2026-05-07 12:46 | 31.21804 | 39.77932 | 40042 ft | 486 kts | 311° |
| 2026-05-07 12:47 | 31.26843 | 39.72652 | 40036 ft | 486 kts | 311° |
| 2026-05-07 12:47 | 31.31871 | 39.67375 | 40039 ft | 486 kts | 311° |
| 2026-05-07 12:48 | 31.36895 | 39.62096 | 40036 ft | 486 kts | 311° |
| 2026-05-07 12:48 | 31.41893 | 39.56835 | 40037 ft | 486 kts | 311° |
| 2026-05-07 12:49 | 31.46918 | 39.51545 | 40020 ft | 486 kts | 311° |
| 2026-05-07 12:49 | 31.51937 | 39.46244 | 40032 ft | 485 kts | 311° |
| 2026-05-07 12:50 | 31.56950 | 39.40940 | 40035 ft | 485 kts | 311° |
| 2026-05-07 12:50 | 31.61962 | 39.35631 | 40029 ft | 485 kts | 311° |
| 2026-05-07 12:51 | 31.66971 | 39.30318 | 40032 ft | 485 kts | 311° |
| 2026-05-07 12:51 | 31.71983 | 39.24994 | 40031 ft | 485 kts | 311° |
| 2026-05-07 12:52 | 31.76988 | 39.19670 | 40028 ft | 485 kts | 311° |
| 2026-05-07 12:52 | 31.82545 | 39.15015 | 40032 ft | 498 kts | 324° |
| 2026-05-07 12:53 | 31.88699 | 39.11222 | 40027 ft | 501 kts | 327° |
| 2026-05-07 12:53 | 31.94953 | 39.07569 | 40029 ft | 501 kts | 327° |
| 2026-05-07 12:54 | 32.01155 | 39.03945 | 40030 ft | 501 kts | 327° |
| 2026-05-07 12:54 | 32.07389 | 39.00278 | 40027 ft | 500 kts | 327° |
| 2026-05-07 12:55 | 32.13611 | 38.96611 | 40031 ft | 500 kts | 327° |
| 2026-05-07 12:55 | 32.19834 | 38.92935 | 40025 ft | 499 kts | 327° |
| 2026-05-07 12:56 | 32.26051 | 38.89257 | 40025 ft | 499 kts | 327° |
| 2026-05-07 12:56 | 32.32218 | 38.85602 | 40019 ft | 498 kts | 327° |
| 2026-05-07 12:57 | 32.38450 | 38.81903 | 40026 ft | 498 kts | 327° |
| 2026-05-07 12:57 | 32.44600 | 38.78247 | 40014 ft | 497 kts | 327° |
| 2026-05-07 12:58 | 32.50775 | 38.74571 | 40019 ft | 496 kts | 327° |
| 2026-05-07 12:58 | 32.56950 | 38.70890 | 40017 ft | 496 kts | 327° |
| 2026-05-07 12:59 | 32.63111 | 38.67217 | 40017 ft | 495 kts | 328° |
| 2026-05-07 12:59 | 32.69260 | 38.63541 | 40015 ft | 494 kts | 328° |
| 2026-05-07 13:00 | 32.75402 | 38.59862 | 40015 ft | 494 kts | 328° |
| 2026-05-07 13:00 | 32.81530 | 38.56187 | 40011 ft | 493 kts | 328° |
| 2026-05-07 13:01 | 32.86615 | 38.53134 | 40013 ft | 492 kts | 328° |
| 2026-05-07 13:01 | 32.93720 | 38.48862 | 40007 ft | 491 kts | 328° |
| 2026-05-07 13:02 | 32.98835 | 38.45784 | 40007 ft | 491 kts | 328° |
| 2026-05-07 13:02 | 33.04885 | 38.42136 | 40009 ft | 490 kts | 328° |
| 2026-05-07 13:03 | 33.10963 | 38.38459 | 40007 ft | 489 kts | 328° |
| 2026-05-07 13:03 | 33.17036 | 38.34788 | 40010 ft | 489 kts | 328° |
| 2026-05-07 13:04 | 33.23101 | 38.31121 | 40008 ft | 488 kts | 328° |
| 2026-05-07 13:04 | 33.29144 | 38.27439 | 40008 ft | 487 kts | 328° |
| 2026-05-07 13:05 | 33.35177 | 38.23747 | 40010 ft | 487 kts | 328° |
| 2026-05-07 13:05 | 33.41200 | 38.20060 | 40007 ft | 486 kts | 328° |
| 2026-05-07 13:06 | 33.47216 | 38.16379 | 40009 ft | 485 kts | 328° |
| 2026-05-07 13:06 | 33.53240 | 38.12721 | 40010 ft | 485 kts | 328° |
| 2026-05-07 13:07 | 33.59250 | 38.09073 | 40014 ft | 484 kts | 328° |
| 2026-05-07 13:07 | 33.65254 | 38.05420 | 40014 ft | 483 kts | 328° |
| 2026-05-07 13:08 | 33.71254 | 38.01762 | 40011 ft | 483 kts | 328° |
| 2026-05-07 13:08 | 33.77201 | 37.98128 | 40015 ft | 482 kts | 328° |
| 2026-05-07 13:09 | 33.83133 | 37.94393 | 40015 ft | 479 kts | 323° |
| 2026-05-07 13:09 | 33.88197 | 37.89389 | 40014 ft | 467 kts | 307° |
| 2026-05-07 13:10 | 33.91953 | 37.83107 | 40019 ft | 461 kts | 299° |
| 2026-05-07 13:10 | 33.95367 | 37.76577 | 40014 ft | 461 kts | 298° |
| 2026-05-07 13:11 | 33.98745 | 37.70009 | 40019 ft | 461 kts | 298° |
| 2026-05-07 13:11 | 34.02139 | 37.63453 | 40022 ft | 461 kts | 298° |
| 2026-05-07 13:12 | 34.05544 | 37.56907 | 40025 ft | 460 kts | 298° |
| 2026-05-07 13:12 | 34.08951 | 37.50354 | 40023 ft | 460 kts | 298° |
| 2026-05-07 13:13 | 34.12351 | 37.43803 | 40024 ft | 460 kts | 298° |
| 2026-05-07 13:13 | 34.15725 | 37.37289 | 40028 ft | 460 kts | 298° |
| 2026-05-07 13:14 | 34.19117 | 37.30725 | 40035 ft | 460 kts | 298° |
| 2026-05-07 13:14 | 34.22928 | 37.24501 | 40043 ft | 464 kts | 308° |
| 2026-05-07 13:15 | 34.27334 | 37.18763 | 40029 ft | 466 kts | 309° |
| 2026-05-07 13:15 | 34.31822 | 37.13110 | 40036 ft | 466 kts | 310° |
| 2026-05-07 13:16 | 34.36309 | 37.07457 | 40044 ft | 465 kts | 310° |
| 2026-05-07 13:16 | 34.40783 | 37.01786 | 40053 ft | 465 kts | 309° |
| 2026-05-07 13:17 | 34.45249 | 36.96102 | 40046 ft | 465 kts | 309° |
| 2026-05-07 13:17 | 34.49705 | 36.90419 | 40054 ft | 465 kts | 309° |
| 2026-05-07 13:18 | 34.54137 | 36.84758 | 40052 ft | 465 kts | 309° |
| 2026-05-07 13:18 | 34.58594 | 36.79056 | 40058 ft | 465 kts | 309° |
| 2026-05-07 13:19 | 34.63046 | 36.73352 | 40055 ft | 465 kts | 309° |
| 2026-05-07 13:19 | 34.67494 | 36.67643 | 40059 ft | 465 kts | 310° |
| 2026-05-07 13:20 | 34.71947 | 36.61925 | 40058 ft | 465 kts | 310° |
| 2026-05-07 13:20 | 34.76388 | 36.56205 | 40066 ft | 465 kts | 310° |
| 2026-05-07 13:21 | 34.80830 | 36.50471 | 40068 ft | 465 kts | 310° |
| 2026-05-07 13:21 | 34.85266 | 36.44736 | 40067 ft | 465 kts | 310° |
| 2026-05-07 13:22 | 34.89672 | 36.39033 | 40072 ft | 465 kts | 310° |
| 2026-05-07 13:22 | 34.94096 | 36.33298 | 40071 ft | 465 kts | 310° |
| 2026-05-07 13:23 | 34.98520 | 36.27554 | 40076 ft | 464 kts | 310° |
| 2026-05-07 13:23 | 35.02939 | 36.21805 | 40077 ft | 464 kts | 310° |
| 2026-05-07 13:24 | 35.07343 | 36.16066 | 40085 ft | 463 kts | 310° |
| 2026-05-07 13:24 | 35.11744 | 36.10320 | 40081 ft | 463 kts | 310° |
| 2026-05-07 13:25 | 35.16112 | 36.04544 | 40086 ft | 461 kts | 307° |
| 2026-05-07 13:25 | 35.19533 | 35.98004 | 40083 ft | 455 kts | 292° |
| 2026-05-07 13:26 | 35.21199 | 35.90667 | 40097 ft | 452 kts | 275° |
| 2026-05-07 13:26 | 35.20971 | 35.83012 | 40093 ft | 452 kts | 262° |
| 2026-05-07 13:27 | 35.19916 | 35.75430 | 40094 ft | 453 kts | 261° |
| 2026-05-07 13:27 | 35.18817 | 35.67840 | 40086 ft | 453 kts | 261° |
| 2026-05-07 13:28 | 35.17694 | 35.60252 | 40088 ft | 454 kts | 261° |
| 2026-05-07 13:28 | 35.16568 | 35.52649 | 40089 ft | 454 kts | 261° |
| 2026-05-07 13:29 | 35.15448 | 35.45043 | 40093 ft | 454 kts | 261° |
| 2026-05-07 13:29 | 35.14329 | 35.37444 | 40095 ft | 455 kts | 261° |
| 2026-05-07 13:30 | 35.13203 | 35.29836 | 40090 ft | 455 kts | 261° |
| 2026-05-07 13:30 | 35.12080 | 35.22283 | 40090 ft | 455 kts | 261° |
| 2026-05-07 13:31 | 35.10943 | 35.14668 | 40091 ft | 455 kts | 261° |
| 2026-05-07 13:31 | 35.09799 | 35.07051 | 40093 ft | 456 kts | 261° |
| 2026-05-07 13:32 | 35.08650 | 34.99423 | 40093 ft | 456 kts | 261° |
| 2026-05-07 13:32 | 35.07496 | 34.91804 | 40091 ft | 456 kts | 261° |
| 2026-05-07 13:33 | 35.06338 | 34.84187 | 40096 ft | 457 kts | 261° |
| 2026-05-07 13:33 | 35.05174 | 34.76565 | 40099 ft | 457 kts | 261° |
| 2026-05-07 13:34 | 35.03417 | 34.65122 | 40097 ft | 457 kts | 261° |
| 2026-05-07 13:35 | 35.02256 | 34.57488 | 40093 ft | 458 kts | 261° |
| 2026-05-07 13:35 | 35.01102 | 34.49894 | 40096 ft | 458 kts | 261° |
| 2026-05-07 13:36 | 34.99934 | 34.42250 | 40097 ft | 458 kts | 261° |
| 2026-05-07 13:36 | 34.98760 | 34.34607 | 40100 ft | 459 kts | 261° |
| 2026-05-07 13:37 | 34.97579 | 34.26957 | 40098 ft | 459 kts | 261° |
| 2026-05-07 13:37 | 34.96394 | 34.19311 | 40099 ft | 459 kts | 261° |
| 2026-05-07 13:38 | 34.95204 | 34.11665 | 40100 ft | 459 kts | 261° |
| 2026-05-07 13:38 | 34.94004 | 34.04011 | 40100 ft | 460 kts | 261° |
| 2026-05-07 13:39 | 34.92803 | 33.96404 | 40103 ft | 460 kts | 261° |
| 2026-05-07 13:39 | 34.91584 | 33.88745 | 40102 ft | 460 kts | 260° |
| 2026-05-07 13:40 | 34.90333 | 33.81092 | 40101 ft | 460 kts | 260° |
| 2026-05-07 13:40 | 34.89077 | 33.73447 | 40102 ft | 461 kts | 260° |
| 2026-05-07 13:41 | 34.88101 | 33.65752 | 40101 ft | 459 kts | 269° |
| 2026-05-07 13:41 | 34.88719 | 33.58057 | 40098 ft | 457 kts | 285° |
| 2026-05-07 13:42 | 34.90668 | 33.50683 | 40104 ft | 457 kts | 289° |
| 2026-05-07 13:42 | 34.92821 | 33.43435 | 40102 ft | 457 kts | 290° |
| 2026-05-07 13:43 | 34.94994 | 33.36148 | 40101 ft | 457 kts | 290° |
| 2026-05-07 13:43 | 34.97133 | 33.28844 | 40101 ft | 457 kts | 290° |
| 2026-05-07 13:44 | 34.99246 | 33.21539 | 40100 ft | 457 kts | 290° |
| 2026-05-07 13:44 | 35.01342 | 33.14257 | 40103 ft | 457 kts | 290° |
| 2026-05-07 13:45 | 35.03448 | 33.06942 | 40099 ft | 456 kts | 290° |
| 2026-05-07 13:45 | 35.05548 | 32.99628 | 40104 ft | 456 kts | 290° |
| 2026-05-07 13:46 | 35.07647 | 32.92304 | 40109 ft | 457 kts | 290° |
| 2026-05-07 13:46 | 35.09658 | 32.84952 | 40112 ft | 457 kts | 289° |
| 2026-05-07 13:47 | 35.11607 | 32.77559 | 40117 ft | 457 kts | 289° |
| 2026-05-07 13:47 | 35.13549 | 32.70217 | 40118 ft | 457 kts | 289° |
| 2026-05-07 13:48 | 35.15512 | 32.62831 | 40114 ft | 457 kts | 289° |
| 2026-05-07 13:48 | 35.17147 | 32.56686 | 40118 ft | 457 kts | 289° |
| 2026-05-07 13:49 | 35.19109 | 32.49293 | 40120 ft | 457 kts | 289° |
| 2026-05-07 13:49 | 35.21065 | 32.41902 | 40119 ft | 457 kts | 289° |
| 2026-05-07 13:50 | 35.23013 | 32.34514 | 40119 ft | 456 kts | 289° |
| 2026-05-07 13:50 | 35.24957 | 32.27123 | 40122 ft | 456 kts | 289° |
| 2026-05-07 13:51 | 35.26896 | 32.19730 | 40119 ft | 456 kts | 289° |
| 2026-05-07 13:51 | 35.28833 | 32.12327 | 40118 ft | 456 kts | 289° |
| 2026-05-07 13:52 | 35.30750 | 32.04978 | 40117 ft | 455 kts | 289° |
| 2026-05-07 13:52 | 35.32704 | 31.97606 | 40119 ft | 455 kts | 289° |
| 2026-05-07 13:53 | 35.34668 | 31.90244 | 40115 ft | 455 kts | 289° |
| 2026-05-07 13:53 | 35.36622 | 31.82885 | 40119 ft | 454 kts | 289° |
| 2026-05-07 13:54 | 35.38569 | 31.75520 | 40120 ft | 454 kts | 289° |
| 2026-05-07 13:54 | 35.40506 | 31.68165 | 40116 ft | 454 kts | 289° |
| 2026-05-07 13:55 | 35.42440 | 31.60800 | 40122 ft | 453 kts | 289° |
| 2026-05-07 13:55 | 35.44366 | 31.53449 | 40121 ft | 453 kts | 289° |
| 2026-05-07 13:56 | 35.46277 | 31.46131 | 40122 ft | 453 kts | 289° |
| 2026-05-07 13:56 | 35.48198 | 31.38758 | 40121 ft | 453 kts | 289° |
| 2026-05-07 13:57 | 35.50110 | 31.31397 | 40119 ft | 452 kts | 289° |
| 2026-05-07 13:57 | 35.52018 | 31.24029 | 40126 ft | 452 kts | 289° |
| 2026-05-07 13:58 | 35.53919 | 31.16668 | 40124 ft | 452 kts | 289° |
| 2026-05-07 13:58 | 35.55814 | 31.09313 | 40129 ft | 452 kts | 289° |
| 2026-05-07 13:59 | 35.57691 | 31.02004 | 40131 ft | 451 kts | 289° |
| 2026-05-07 13:59 | 35.59580 | 30.94628 | 40124 ft | 451 kts | 289° |
| 2026-05-07 14:00 | 35.61460 | 30.87267 | 40124 ft | 450 kts | 289° |
| 2026-05-07 14:00 | 35.63330 | 30.79920 | 40121 ft | 450 kts | 289° |
| 2026-05-07 14:01 | 35.65194 | 30.72581 | 40130 ft | 449 kts | 289° |
| 2026-05-07 14:01 | 35.67053 | 30.65238 | 40140 ft | 449 kts | 289° |
| 2026-05-07 14:02 | 35.68893 | 30.57953 | 40128 ft | 449 kts | 289° |
| 2026-05-07 14:02 | 35.70741 | 30.50613 | 40138 ft | 449 kts | 289° |
| 2026-05-07 14:03 | 35.72582 | 30.43276 | 40137 ft | 449 kts | 289° |
| 2026-05-07 14:03 | 35.74423 | 30.35922 | 40134 ft | 448 kts | 289° |
| 2026-05-07 14:04 | 35.76255 | 30.28585 | 40131 ft | 448 kts | 289° |
| 2026-05-07 14:04 | 35.78081 | 30.21248 | 40141 ft | 448 kts | 289° |
| 2026-05-07 14:05 | 35.79890 | 30.13958 | 40142 ft | 447 kts | 289° |
| 2026-05-07 14:05 | 35.81704 | 30.06625 | 40127 ft | 447 kts | 289° |
| 2026-05-07 14:06 | 35.83511 | 29.99304 | 40130 ft | 446 kts | 289° |
| 2026-05-07 14:06 | 35.85429 | 29.92038 | 40141 ft | 445 kts | 291° |
| 2026-05-07 14:07 | 35.87432 | 29.84820 | 40142 ft | 444 kts | 291° |
| 2026-05-07 14:07 | 35.89412 | 29.77611 | 40130 ft | 443 kts | 291° |
| 2026-05-07 14:08 | 35.91351 | 29.70455 | 40141 ft | 442 kts | 290° |
| 2026-05-07 14:08 | 35.93285 | 29.63267 | 40142 ft | 441 kts | 290° |
| 2026-05-07 14:09 | 35.95214 | 29.56078 | 40128 ft | 440 kts | 290° |
| 2026-05-07 14:09 | 35.97138 | 29.48915 | 40144 ft | 439 kts | 290° |
| 2026-05-07 14:10 | 35.99053 | 29.41798 | 40142 ft | 438 kts | 290° |
| 2026-05-07 14:10 | 36.00967 | 29.34667 | 40139 ft | 437 kts | 290° |
| 2026-05-07 14:11 | 36.02876 | 29.27534 | 40137 ft | 437 kts | 290° |
| 2026-05-07 14:11 | 36.04778 | 29.20401 | 40136 ft | 437 kts | 290° |
| 2026-05-07 14:12 | 36.06676 | 29.13268 | 40135 ft | 437 kts | 290° |
| 2026-05-07 14:12 | 36.08570 | 29.06126 | 40138 ft | 437 kts | 290° |
| 2026-05-07 14:13 | 36.10460 | 28.98985 | 40136 ft | 437 kts | 290° |
| 2026-05-07 14:13 | 36.12347 | 28.91830 | 40128 ft | 437 kts | 290° |
| 2026-05-07 14:14 | 36.14217 | 28.84722 | 40129 ft | 437 kts | 290° |
| 2026-05-07 14:14 | 36.16099 | 28.77553 | 40129 ft | 438 kts | 290° |
| 2026-05-07 14:15 | 36.17975 | 28.70384 | 40127 ft | 438 kts | 290° |
| 2026-05-07 14:15 | 36.19848 | 28.63207 | 40124 ft | 438 kts | 290° |
| 2026-05-07 14:16 | 36.21717 | 28.56025 | 40122 ft | 438 kts | 290° |
| 2026-05-07 14:16 | 36.23583 | 28.48835 | 40119 ft | 438 kts | 290° |
| 2026-05-07 14:17 | 36.25431 | 28.41684 | 40119 ft | 438 kts | 290° |
| 2026-05-07 14:17 | 36.27279 | 28.34489 | 40121 ft | 438 kts | 289° |
| 2026-05-07 14:18 | 36.29125 | 28.27284 | 40125 ft | 438 kts | 289° |
| 2026-05-07 14:18 | 36.30968 | 28.20076 | 40128 ft | 438 kts | 289° |
| 2026-05-07 14:19 | 36.32806 | 28.12872 | 40129 ft | 438 kts | 289° |
| 2026-05-07 14:19 | 36.34893 | 28.05790 | 40131 ft | 436 kts | 295° |
| 2026-05-07 14:20 | 36.37319 | 27.98896 | 40128 ft | 435 kts | 295° |
| 2026-05-07 14:20 | 36.39772 | 27.92082 | 40128 ft | 435 kts | 295° |
| 2026-05-07 14:21 | 36.42236 | 27.85231 | 40128 ft | 434 kts | 295° |
| 2026-05-07 14:21 | 36.44687 | 27.78379 | 40125 ft | 433 kts | 295° |
| 2026-05-07 14:22 | 36.47127 | 27.71535 | 40126 ft | 433 kts | 295° |
| 2026-05-07 14:22 | 36.49549 | 27.64734 | 40127 ft | 432 kts | 295° |
| 2026-05-07 14:23 | 36.51974 | 27.57888 | 40130 ft | 432 kts | 295° |
| 2026-05-07 14:23 | 36.54390 | 27.51057 | 40134 ft | 431 kts | 295° |
| 2026-05-07 14:24 | 36.56785 | 27.44271 | 40133 ft | 431 kts | 295° |
| 2026-05-07 14:24 | 36.59191 | 27.37443 | 40131 ft | 430 kts | 295° |
| 2026-05-07 14:25 | 36.61589 | 27.30624 | 40130 ft | 430 kts | 295° |
| 2026-05-07 14:25 | 36.63977 | 27.23816 | 40132 ft | 429 kts | 295° |
| 2026-05-07 14:26 | 36.66360 | 27.17008 | 40130 ft | 428 kts | 295° |
| 2026-05-07 14:26 | 36.68734 | 27.10217 | 40130 ft | 427 kts | 295° |
| 2026-05-07 14:27 | 36.71099 | 27.03421 | 40129 ft | 426 kts | 295° |
| 2026-05-07 14:27 | 36.73450 | 26.96637 | 40133 ft | 426 kts | 295° |
| 2026-05-07 14:28 | 36.75783 | 26.89900 | 40133 ft | 425 kts | 295° |
| 2026-05-07 14:28 | 36.78123 | 26.83127 | 40135 ft | 425 kts | 295° |
| 2026-05-07 14:29 | 36.80457 | 26.76355 | 40141 ft | 424 kts | 295° |
| 2026-05-07 14:29 | 36.82783 | 26.69595 | 40139 ft | 423 kts | 294° |
| 2026-05-07 14:30 | 36.85104 | 26.62834 | 40141 ft | 423 kts | 294° |
| 2026-05-07 14:30 | 36.87417 | 26.56092 | 40139 ft | 422 kts | 294° |
| 2026-05-07 14:31 | 36.89730 | 26.49346 | 40148 ft | 422 kts | 294° |
| 2026-05-07 14:31 | 36.92025 | 26.42611 | 40143 ft | 421 kts | 294° |
| 2026-05-07 14:32 | 36.94295 | 26.35913 | 40142 ft | 421 kts | 294° |
| 2026-05-07 14:32 | 36.96572 | 26.29186 | 40141 ft | 420 kts | 294° |
| 2026-05-07 14:33 | 36.98848 | 26.22463 | 40139 ft | 419 kts | 294° |
| 2026-05-07 14:33 | 37.01127 | 26.15755 | 40139 ft | 418 kts | 294° |
| 2026-05-07 14:34 | 37.03401 | 26.09050 | 40140 ft | 418 kts | 294° |
| 2026-05-07 14:34 | 37.05281 | 26.03491 | 40138 ft | 417 kts | 294° |
| 2026-05-07 14:35 | 37.07908 | 25.95705 | 40136 ft | 416 kts | 294° |
| 2026-05-07 14:35 | 37.09794 | 25.90104 | 40137 ft | 416 kts | 294° |
| 2026-05-07 14:36 | 37.12022 | 25.83473 | 40137 ft | 416 kts | 294° |
| 2026-05-07 14:36 | 37.14260 | 25.76795 | 40142 ft | 415 kts | 294° |
| 2026-05-07 14:37 | 37.16492 | 25.70120 | 40144 ft | 415 kts | 294° |
| 2026-05-07 14:37 | 37.19832 | 25.60104 | 40123 ft | 415 kts | 294° |
| 2026-05-07 14:38 | 37.20941 | 25.56773 | 39819 ft | 412 kts | 294° |
| 2026-05-07 14:38 | 37.22029 | 25.53497 | 39216 ft | 412 kts | 294° |
| 2026-05-07 14:38 | 37.23132 | 25.50177 | 38455 ft | 412 kts | 294° |
| 2026-05-07 14:38 | 37.24229 | 25.46840 | 37615 ft | 414 kts | 293° |
| 2026-05-07 14:39 | 37.25311 | 25.43483 | 36813 ft | 415 kts | 292° |
| 2026-05-07 14:39 | 37.26385 | 25.40116 | 36020 ft | 416 kts | 292° |
| 2026-05-07 14:39 | 37.27462 | 25.36734 | 35279 ft | 418 kts | 292° |
| 2026-05-07 14:39 | 37.28499 | 25.33313 | 34552 ft | 419 kts | 289° |
| 2026-05-07 14:40 | 37.29414 | 25.29827 | 33804 ft | 421 kts | 288° |
| 2026-05-07 14:40 | 37.30321 | 25.26318 | 32990 ft | 422 kts | 289° |
| 2026-05-07 14:40 | 37.31227 | 25.22856 | 32219 ft | 423 kts | 289° |
| 2026-05-07 14:40 | 37.32154 | 25.19349 | 31462 ft | 423 kts | 289° |
| 2026-05-07 14:41 | 37.33087 | 25.15839 | 30716 ft | 424 kts | 289° |
| 2026-05-07 14:41 | 37.34027 | 25.12312 | 29970 ft | 424 kts | 289° |
| 2026-05-07 14:41 | 37.34963 | 25.08799 | 29133 ft | 424 kts | 289° |
| 2026-05-07 14:41 | 37.35902 | 25.05278 | 28329 ft | 424 kts | 289° |
| 2026-05-07 14:42 | 37.36839 | 25.01762 | 27546 ft | 424 kts | 289° |
| 2026-05-07 14:42 | 37.37776 | 24.98248 | 26787 ft | 424 kts | 289° |
| 2026-05-07 14:42 | 37.38710 | 24.94733 | 26044 ft | 424 kts | 288° |
| 2026-05-07 14:42 | 37.39640 | 24.91223 | 25316 ft | 423 kts | 288° |
| 2026-05-07 14:43 | 37.40548 | 24.87796 | 24629 ft | 402 kts | 288° |
| 2026-05-07 14:43 | 37.41433 | 24.84453 | 23951 ft | 403 kts | 288° |
| 2026-05-07 14:43 | 37.42307 | 24.81149 | 23202 ft | 405 kts | 288° |
| 2026-05-07 14:43 | 37.43482 | 24.77923 | 22394 ft | 407 kts | 302° |
| 2026-05-07 14:44 | 37.45387 | 24.75268 | 21618 ft | 411 kts | 319° |
| 2026-05-07 14:44 | 37.47855 | 24.73414 | 20865 ft | 416 kts | 332° |
| 2026-05-07 14:44 | 37.50521 | 24.71996 | 20113 ft | 407 kts | 335° |
| 2026-05-07 14:44 | 37.53082 | 24.70719 | 19429 ft | 386 kts | 335° |
| 2026-05-07 14:45 | 37.55536 | 24.69517 | 18748 ft | 375 kts | 335° |
| 2026-05-07 14:45 | 37.57982 | 24.68324 | 18008 ft | 379 kts | 335° |
| 2026-05-07 14:45 | 37.60448 | 24.67108 | 17233 ft | 382 kts | 335° |
| 2026-05-07 14:45 | 37.62896 | 24.65882 | 16457 ft | 384 kts | 335° |
| 2026-05-07 14:46 | 37.65331 | 24.64645 | 15706 ft | 367 kts | 335° |
| 2026-05-07 14:46 | 37.67629 | 24.63467 | 15002 ft | 349 kts | 335° |
| 2026-05-07 14:46 | 37.69834 | 24.62324 | 14312 ft | 340 kts | 335° |
| 2026-05-07 14:46 | 37.72035 | 24.61164 | 13574 ft | 346 kts | 335° |
| 2026-05-07 14:47 | 37.74271 | 24.59970 | 12789 ft | 350 kts | 335° |
| 2026-05-07 14:47 | 37.76524 | 24.58753 | 12036 ft | 354 kts | 335° |
| 2026-05-07 14:47 | 37.78796 | 24.57513 | 11293 ft | 357 kts | 335° |
| 2026-05-07 14:47 | 37.81050 | 24.56269 | 10560 ft | 359 kts | 335° |
| 2026-05-07 14:48 | 37.83342 | 24.54992 | 9850 ft | 360 kts | 335° |
| 2026-05-07 14:48 | 37.85638 | 24.53705 | 9075 ft | 361 kts | 335° |
| 2026-05-07 14:48 | 37.87934 | 24.52421 | 8321 ft | 361 kts | 335° |
| 2026-05-07 14:48 | 37.90239 | 24.51140 | 7577 ft | 361 kts | 335° |
| 2026-05-07 14:49 | 37.92543 | 24.49860 | 6860 ft | 360 kts | 335° |
| 2026-05-07 14:49 | 37.94836 | 24.48591 | 6126 ft | 359 kts | 335° |
| 2026-05-07 14:49 | 37.97131 | 24.47320 | 5453 ft | 359 kts | 334° |
| 2026-05-07 14:49 | 37.99246 | 24.45732 | 5079 ft | 345 kts | 321° |
| 2026-05-07 14:50 | 38.00990 | 24.43831 | 5005 ft | 325 kts | 315° |
| 2026-05-07 14:50 | 38.02615 | 24.41933 | 4962 ft | 311 kts | 315° |
| 2026-05-07 14:50 | 38.04152 | 24.40072 | 4749 ft | 300 kts | 310° |
| 2026-05-07 14:50 | 38.05314 | 24.37938 | 4490 ft | 284 kts | 294° |
| 2026-05-07 14:51 | 38.05999 | 24.35721 | 4264 ft | 257 kts | 285° |
| 2026-05-07 14:51 | 38.06542 | 24.33649 | 4029 ft | 238 kts | 285° |
| 2026-05-07 14:51 | 38.07047 | 24.31717 | 3795 ft | 224 kts | 285° |
| 2026-05-07 14:51 | 38.07395 | 24.29885 | 3588 ft | 212 kts | 274° |
| 2026-05-07 14:52 | 38.07559 | 24.28010 | 3337 ft | 215 kts | 272° |
| 2026-05-07 14:52 | 38.07684 | 24.26127 | 3077 ft | 213 kts | 271° |
| 2026-05-07 14:52 | 38.07794 | 24.24293 | 3014 ft | 204 kts | 271° |
| 2026-05-07 14:52 | 38.07893 | 24.22498 | 2993 ft | 205 kts | 271° |
| 2026-05-07 14:53 | 38.07990 | 24.20684 | 2996 ft | 207 kts | 270° |
| 2026-05-07 14:53 | 38.08084 | 24.18867 | 2983 ft | 207 kts | 270° |
| 2026-05-07 14:53 | 38.08177 | 24.17047 | 2983 ft | 206 kts | 271° |
| 2026-05-07 14:53 | 38.08235 | 24.15228 | 2983 ft | 206 kts | 265° |
| 2026-05-07 14:54 | 38.07924 | 24.13468 | 2985 ft | 203 kts | 248° |
| 2026-05-07 14:54 | 38.07389 | 24.11806 | 2988 ft | 203 kts | 245° |
| 2026-05-07 14:54 | 38.06625 | 24.10315 | 2993 ft | 201 kts | 227° |
| 2026-05-07 14:54 | 38.05676 | 24.09031 | 2886 ft | 200 kts | 225° |
| 2026-05-07 14:55 | 38.04863 | 24.07600 | 2680 ft | 200 kts | 241° |
| 2026-05-07 14:55 | 38.04235 | 24.06045 | 2446 ft | 195 kts | 236° |
| 2026-05-07 14:55 | 38.03384 | 24.04747 | 2210 ft | 189 kts | 217° |
| 2026-05-07 14:55 | 38.02305 | 24.03823 | 2016 ft | 184 kts | 211° |
| 2026-05-07 14:56 | 38.01301 | 24.02907 | 1866 ft | 177 kts | 219° |
| 2026-05-07 14:56 | 38.00368 | 24.01956 | 1652 ft | 167 kts | 215° |
| 2026-05-07 14:56 | 37.99460 | 24.01113 | 1433 ft | 157 kts | 214° |
| 2026-05-07 14:56 | 37.98608 | 24.00296 | 1219 ft | 149 kts | 214° |
| 2026-05-07 14:57 | 37.97806 | 23.99531 | 1023 ft | 140 kts | 217° |
| 2026-05-07 14:57 | 37.97047 | 23.98809 | 832 ft | 134 kts | 217° |
| 2026-05-07 14:57 | 37.96314 | 23.98115 | 625 ft | 130 kts | 219° |
| 2026-05-07 14:57 | 37.95592 | 23.97421 | 464 ft | 133 kts | 219° |
| 2026-05-07 14:58 | 37.94855 | 23.96704 | 353 ft | 134 kts | 219° |
| 2026-05-07 14:58 | 37.94163 | 23.96042 | 309 ft | 105 kts | 218° |
| 2026-05-07 14:58 | 37.93846 | 23.95670 | 303 ft | 32 kts | 241° |
| 2026-05-07 14:58 | 37.93774 | 23.95465 | 302 ft | 14 kts | 246° |
| 2026-05-07 14:59 | 37.93719 | 23.95348 | 303 ft | 16 kts | 225° |
| 2026-05-07 14:59 | 37.93689 | 23.95316 | 304 ft | 7 kts | 218° |
| 2026-05-07 14:59 | 37.93686 | 23.95313 | 304 ft | 0 kts | 218° |
| 2026-05-07 15:00 | 37.93680 | 23.95307 | 303 ft | 4 kts | 218° |
| 2026-05-07 15:00 | 37.93660 | 23.95226 | 300 ft | 16 kts | 280° |
| 2026-05-07 15:00 | 37.93700 | 23.95080 | 300 ft | 18 kts | 253° |
| 2026-05-07 15:00 | 37.93587 | 23.94958 | 300 ft | 21 kts | 217° |
| 2026-05-07 15:01 | 37.93536 | 23.94843 | 298 ft | 14 kts | 293° |
| 2026-05-07 15:01 | 37.93557 | 23.94803 | 300 ft | 0 kts | 307° |